Terminal Aerodrome Forecast
Issued by NWS Wichita, KS

Home | Current Version | Previous Version | Text Only | Print | Product List | Glossary On
Versions: 1 2 3 4 5 6 7 8 9 10 11 12 13 14 15 16 17 18 19 20 21 22
689
FTUS43 KICT 300610 AAB
TAFICT
TAF AMD
KICT 300610Z 3006/0106 33007KT P6SM OVC009
      TEMPO 3006/3008 3SM -RA BR OVC005
     FM300800 30010KT 5SM BR OVC009
     FM301400 27014KT P6SM SCT035
     FM301800 25013KT P6SM SCT120
     FM010400 28011KT P6SM SCT200=

USA.gov is the U.S. government's official web portal to all federal, state and local government web resources and services.